Time;durP1;ratioP1;P1;durP2;ratioP2;P2;SDS_P1;SDS_P2;PMS_P1;PMS_P2;Temp;Humidity;BMP_temperature;BMP_pressure;BME280_temperature;BME280_humidity;BME280_pressure;Samples;Min_cycle;Max_cycle;Signal;HPM_P1;HPM_P2
2021/03/08 00:01:59;;;;;;;28.10;21.73;;;2.50;83.00;;;;;;5118549;28;20207;-41
2021/03/08 00:04:24;;;;;;;27.10;21.63;;;2.20;84.00;;;;;;5118254;28;20179;-37
2021/03/08 00:06:50;;;;;;;26.40;21.33;;;1.90;85.20;;;;;;5117590;28;20187;-39
2021/03/08 00:09:15;;;;;;;27.50;21.30;;;1.70;86.00;;;;;;5117621;28;20229;-42
2021/03/08 00:11:41;;;;;;;25.47;21.40;;;1.60;86.60;;;;;;5118403;28;20195;-40
2021/03/08 00:14:07;;;;;;;25.33;20.47;;;1.40;87.10;;;;;;5118056;28;20235;-41
2021/03/08 00:16:32;;;;;;;28.93;22.37;;;1.30;87.60;;;;;;5117460;28;20187;-42
2021/03/08 00:18:58;;;;;;;27.10;22.30;;;1.20;88.00;;;;;;5117679;28;20265;-39
2021/03/08 00:21:23;;;;;;;28.57;21.83;;;1.10;88.70;;;;;;5117650;28;20190;-41
2021/03/08 00:23:49;;;;;;;26.53;20.87;;;1.00;89.10;;;;;;5117753;28;20164;-41
2021/03/08 00:26:14;;;;;;;29.00;23.13;;;1.00;89.30;;;;;;5117879;28;20454;-42
2021/03/08 00:28:40;;;;;;;28.90;21.30;;;1.00;89.60;;;;;;5117553;28;20175;-40
2021/03/08 00:31:06;;;;;;;25.37;20.53;;;0.90;89.60;;;;;;5117710;28;20259;-42
2021/03/08 00:33:31;;;;;;;29.13;21.07;;;0.90;89.60;;;;;;5118034;28;20175;-42
2021/03/08 00:35:57;;;;;;;25.37;20.77;;;0.80;89.70;;;;;;5117854;28;20549;-42
2021/03/08 00:38:22;;;;;;;29.63;22.90;;;0.70;89.60;;;;;;5119982;28;20473;-42
2021/03/08 00:40:48;;;;;;;27.57;21.60;;;0.70;90.00;;;;;;5121984;28;20603;-39
2021/03/08 00:43:14;;;;;;;31.30;22.17;;;0.60;90.10;;;;;;5121937;28;20183;-40
2021/03/08 00:45:41;;;;;;;28.47;22.33;;;0.50;90.30;;;;;;5121888;28;20186;-41
2021/03/08 00:48:07;;;;;;;31.27;22.60;;;0.50;90.30;;;;;;5121558;28;20265;-40
2021/03/08 00:50:32;;;;;;;28.67;22.30;;;0.50;90.30;;;;;;5114534;28;20437;-42
2021/03/08 00:52:58;;;;;;;25.40;20.80;;;0.50;90.30;;;;;;5101401;28;20181;-42
2021/03/08 00:55:23;;;;;;;28.93;22.33;;;0.50;90.30;;;;;;5101629;28;20176;-42
2021/03/08 00:57:49;;;;;;;27.63;21.43;;;0.40;90.50;;;;;;5101543;28;20655;-41
2021/03/08 01:00:26;;;;;;;29.63;20.60;;;0.30;90.50;;;;;;5100525;28;20582;-42
2021/03/08 01:02:52;;;;;;;27.33;20.70;;;0.20;90.60;;;;;;5101824;28;20266;-40
2021/03/08 01:05:38;;;;;;;29.10;21.50;;;0.20;90.80;;;;;;5101243;28;20429;-40
2021/03/08 01:08:04;;;;;;;29.17;20.70;;;0.10;90.80;;;;;;5058743;28;20663;-40
2021/03/08 01:10:32;;;;;;;30.27;22.00;;;0.10;90.90;;;;;;5079136;28;20830;-42
2021/03/08 01:12:58;;;;;;;29.07;21.50;;;0.10;91.00;;;;;;5078271;28;20481;-40
2021/03/08 01:15:24;;;;;;;30.93;21.60;;;0.00;91.20;;;;;;5078677;28;20419;-41
2021/03/08 01:17:49;;;;;;;28.20;22.13;;;0.00;91.20;;;;;;5078308;28;20185;-41
2021/03/08 01:20:17;;;;;;;27.33;21.10;;;-0.10;91.20;;;;;;5078659;28;20327;-41
2021/03/08 01:22:44;;;;;;;29.00;21.70;;;-0.10;91.20;;;;;;5078711;28;20202;-42
2021/03/08 01:25:15;;;;;;;29.43;22.70;;;-0.10;91.20;;;;;;5078535;28;20422;-41
2021/03/08 01:27:41;;;;;;;31.10;24.67;;;-0.10;91.10;;;;;;5078825;28;20428;-40
2021/03/08 01:30:18;;;;;;;28.67;22.93;;;0.00;91.20;;;;;;5078496;28;20845;-40
2021/03/08 01:32:44;;;;;;;29.80;22.40;;;-0.10;91.20;;;;;;5079035;28;20561;-43
2021/03/08 01:35:10;;;;;;;27.83;21.40;;;-0.20;91.20;;;;;;5079213;28;20872;-39
2021/03/08 01:37:36;;;;;;;28.40;21.60;;;-0.20;91.30;;;;;;5078123;28;20258;-39
2021/03/08 01:40:07;;;;;;;28.03;21.60;;;-0.20;91.30;;;;;;5079847;28;20474;-42
2021/03/08 01:42:33;;;;;;;27.47;22.07;;;-0.20;91.30;;;;;;5080514;28;20416;-41
2021/03/08 01:44:59;;;;;;;30.10;23.17;;;-0.30;91.20;;;;;;5080183;28;20446;-40
2021/03/08 01:47:25;;;;;;;28.63;22.10;;;-0.30;91.30;;;;;;5080297;28;20419;-41
2021/03/08 01:49:50;;;;;;;26.30;20.30;;;-0.30;91.20;;;;;;5078666;28;20712;-42
2021/03/08 01:52:16;;;;;;;31.93;23.50;;;-0.30;91.20;;;;;;5079651;28;20431;-38
2021/03/08 01:54:42;;;;;;;30.70;23.20;;;-0.40;91.20;;;;;;5080077;28;20177;-41
2021/03/08 01:57:09;;;;;;;26.20;20.63;;;-0.50;91.70;;;;;;5079787;28;20291;-41
2021/03/08 01:59:35;;;;;;;29.00;21.00;;;-0.50;91.40;;;;;;5080540;28;20228;-40
2021/03/08 02:02:02;;;;;;;32.00;24.10;;;-0.50;91.50;;;;;;5079991;28;20433;-41
2021/03/08 02:04:28;;;;;;;27.50;20.63;;;-0.50;91.40;;;;;;5079603;28;20405;-41
2021/03/08 02:06:53;;;;;;;28.70;20.37;;;-0.50;91.40;;;;;;5079564;28;20501;-39
2021/03/08 02:09:19;;;;;;;28.27;20.47;;;-0.50;91.40;;;;;;5061905;28;20192;-41
2021/03/08 02:11:53;;;;;;;27.13;20.00;;;-0.60;91.30;;;;;;5080037;28;20272;-41
2021/03/08 02:14:43;;;;;;;26.70;21.23;;;-0.60;91.30;;;;;;5094856;28;20362;-41
2021/03/08 02:17:17;;;;;;;26.17;20.20;;;-0.60;91.20;;;;;;5100039;28;20712;-41
2021/03/08 02:20:02;;;;;;;28.43;20.50;;;-0.60;91.30;;;;;;5102055;28;20456;-38
2021/03/08 02:23:04;;;;;;;29.90;20.87;;;-0.60;91.30;;;;;;5119483;28;20406;-42
2021/03/08 02:26:02;;;;;;;27.97;22.40;;;-0.70;91.20;;;;;;5119337;28;20504;-41
2021/03/08 02:28:45;;;;;;;26.17;19.97;;;-0.70;91.30;;;;;;5090312;28;20421;-42
2021/03/08 02:31:14;;;;;;;27.83;20.00;;;-0.70;91.50;;;;;;5120539;28;20510;-42
2021/03/08 02:33:42;;;;;;;32.43;20.30;;;-0.70;91.50;;;;;;5102138;28;20421;-42
2021/03/08 02:36:09;;;;;;;27.87;20.60;;;-0.80;91.50;;;;;;5102232;28;20417;-40
2021/03/08 02:38:45;;;;;;;28.77;19.00;;;-0.90;91.60;;;;;;5101771;28;20421;-41
2021/03/08 02:41:22;;;;;;;29.73;20.50;;;-0.90;91.90;;;;;;5102081;28;20432;-40
2021/03/08 02:43:53;;;;;;;27.90;20.40;;;-0.90;92.00;;;;;;5101559;28;20416;-40
2021/03/08 02:46:29;;;;;;;29.73;22.10;;;-1.00;92.10;;;;;;5101319;28;20397;-42
2021/03/08 02:48:56;;;;;;;26.23;20.57;;;-0.90;92.10;;;;;;5101892;28;20417;-41
2021/03/08 02:54:48;;;;;;;30.67;20.10;;;-0.90;92.10;;;;;;5119566;28;20405;-41
2021/03/08 02:57:16;;;;;;;24.57;19.13;;;-0.90;91.90;;;;;;5119401;28;20846;-40
2021/03/08 02:59:45;;;;;;;27.63;21.27;;;-0.90;92.00;;;;;;5101249;28;20461;-42
2021/03/08 03:02:11;;;;;;;28.07;20.60;;;-0.90;92.10;;;;;;5118706;28;20409;-41
2021/03/08 03:04:37;;;;;;;30.73;23.17;;;-0.90;92.20;;;;;;5101836;28;20426;-41
2021/03/08 03:07:05;;;;;;;27.33;20.27;;;-0.90;92.20;;;;;;5100134;28;20421;-42
2021/03/08 03:09:33;;;;;;;27.00;20.30;;;-1.10;92.20;;;;;;5119124;28;20437;-42
2021/03/08 03:11:58;;;;;;;27.40;20.83;;;-1.10;92.20;;;;;;5119271;28;20846;-40
2021/03/08 03:14:25;;;;;;;29.23;21.40;;;-1.20;92.10;;;;;;5100710;28;20829;-42
2021/03/08 03:16:55;;;;;;;30.80;22.60;;;-1.20;92.20;;;;;;5100547;28;20410;-43
2021/03/08 03:19:22;;;;;;;31.47;22.27;;;-1.30;92.00;;;;;;5118854;28;20475;-41
2021/03/08 03:21:48;;;;;;;26.97;21.53;;;-1.20;92.00;;;;;;5100473;28;20426;-41
2021/03/08 03:24:14;;;;;;;31.47;22.50;;;-1.20;92.00;;;;;;5099545;28;20512;-41
2021/03/08 03:26:39;;;;;;;27.70;21.20;;;-1.30;91.90;;;;;;5119278;28;20450;-38
2021/03/08 03:29:05;;;;;;;29.90;21.13;;;-1.30;91.90;;;;;;5100792;28;20175;-40
2021/03/08 03:31:35;;;;;;;26.57;20.60;;;-1.30;91.90;;;;;;5107322;27;20211;-37
2021/03/08 03:34:01;;;;;;;30.37;20.97;;;-1.40;91.70;;;;;;5120779;27;20435;-42
2021/03/08 03:36:29;;;;;;;28.90;20.83;;;-1.40;91.70;;;;;;5138253;27;20420;-38
2021/03/08 03:38:56;;;;;;;29.47;20.70;;;-1.40;91.60;;;;;;5137857;27;20435;-40
2021/03/08 03:41:22;;;;;;;28.93;21.10;;;-1.50;91.60;;;;;;5138960;27;20691;-42
2021/03/08 03:43:48;;;;;;;25.63;19.90;;;-1.50;91.70;;;;;;5138931;27;20695;-39
2021/03/08 03:46:13;;;;;;;27.33;19.73;;;-1.50;91.80;;;;;;5138146;27;20702;-39
2021/03/08 03:48:39;;;;;;;28.77;20.27;;;-1.50;91.90;;;;;;5138399;27;20183;-41
2021/03/08 03:51:05;;;;;;;27.03;20.03;;;-1.60;92.00;;;;;;5138682;27;20682;-39
2021/03/08 03:53:30;;;;;;;31.57;22.50;;;-1.60;92.20;;;;;;5139055;27;20179;-38
2021/03/08 03:55:56;;;;;;;28.07;19.00;;;-1.60;92.20;;;;;;5139194;27;20541;-40
2021/03/08 03:58:24;;;;;;;24.80;19.43;;;-1.60;92.10;;;;;;5138685;27;20542;-40
2021/03/08 04:00:53;;;;;;;27.40;20.73;;;-1.60;92.10;;;;;;5138962;27;20311;-41
2021/03/08 04:03:22;;;;;;;30.70;19.87;;;-1.60;92.00;;;;;;5138818;27;20422;-41
2021/03/08 04:05:48;;;;;;;27.60;20.77;;;-1.70;91.90;;;;;;5119706;27;20428;-40
2021/03/08 04:08:18;;;;;;;30.43;21.47;;;-1.60;92.00;;;;;;5118791;27;20466;-35
2021/03/08 04:10:45;;;;;;;25.30;19.13;;;-1.70;91.90;;;;;;5118972;27;20189;-41
2021/03/08 04:13:14;;;;;;;27.83;19.67;;;-1.70;92.30;;;;;;5119000;27;20452;-37
2021/03/08 04:15:40;;;;;;;27.80;19.37;;;-1.70;92.00;;;;;;5137585;27;20421;-40
2021/03/08 04:18:06;;;;;;;23.40;18.67;;;-1.70;92.40;;;;;;5137895;27;20440;-39
2021/03/08 04:20:32;;;;;;;27.13;19.87;;;-1.70;92.20;;;;;;5120179;28;20476;-38
2021/03/08 04:23:03;;;;;;;29.93;20.90;;;-1.80;92.10;;;;;;5119959;28;20477;-39
2021/03/08 04:25:29;;;;;;;27.60;20.53;;;-1.80;92.00;;;;;;5120157;28;20408;-41
2021/03/08 04:27:57;;;;;;;28.23;20.10;;;-1.80;92.00;;;;;;5120536;28;20433;-40
2021/03/08 04:30:23;;;;;;;32.07;20.53;;;-1.80;91.90;;;;;;5120061;28;20428;-36
2021/03/08 04:32:51;;;;;;;32.60;22.17;;;-1.80;91.90;;;;;;5120224;28;20434;-37
2021/03/08 04:35:18;;;;;;;24.93;20.13;;;-1.80;91.70;;;;;;5120067;28;20460;-40
2021/03/08 04:37:44;;;;;;;25.63;19.37;;;-1.80;91.70;;;;;;5138296;28;20523;-40
2021/03/08 04:40:13;;;;;;;26.27;19.50;;;-1.80;91.60;;;;;;5120058;28;20625;-40
2021/03/08 04:42:38;;;;;;;23.67;20.50;;;-1.90;91.50;;;;;;5138400;28;20206;-40
2021/03/08 04:45:05;;;;;;;27.13;21.10;;;-1.90;91.70;;;;;;5119576;28;20428;-39
2021/03/08 04:47:32;;;;;;;26.77;19.53;;;-2.00;91.70;;;;;;5120172;28;20621;-39
2021/03/08 04:49:58;;;;;;;27.43;18.97;;;-2.00;91.70;;;;;;5119656;28;20435;-41
2021/03/08 04:52:23;;;;;;;25.30;19.40;;;-2.00;91.70;;;;;;5120201;28;20413;-39
2021/03/08 04:54:50;;;;;;;30.00;20.83;;;-2.00;91.80;;;;;;5119851;28;20435;-40
2021/03/08 04:57:19;;;;;;;21.43;18.60;;;-2.00;91.80;;;;;;5138144;28;20179;-40
2021/03/08 04:59:49;;;;;;;28.10;20.70;;;-2.00;91.70;;;;;;5137943;28;20550;-40
2021/03/08 05:02:18;;;;;;;22.67;18.40;;;-2.00;91.60;;;;;;5117700;28;20764;-41
2021/03/08 05:04:46;;;;;;;24.73;18.53;;;-2.00;91.40;;;;;;5137134;28;20497;-40
2021/03/08 05:07:13;;;;;;;23.60;19.90;;;-2.00;91.40;;;;;;5116428;28;20857;-40
2021/03/08 05:09:39;;;;;;;24.03;18.77;;;-2.10;91.40;;;;;;5134465;28;20416;-39
2021/03/08 05:12:07;;;;;;;26.27;19.50;;;-2.10;91.70;;;;;;5135024;28;20477;-41
2021/03/08 05:14:33;;;;;;;25.90;18.43;;;-2.10;91.70;;;;;;5116703;28;20235;-41
2021/03/08 05:17:00;;;;;;;25.90;19.77;;;-2.10;91.70;;;;;;5111892;28;20433;-41
2021/03/08 05:19:26;;;;;;;25.33;19.53;;;-2.20;91.70;;;;;;5106056;28;20930;-37
2021/03/08 05:21:52;;;;;;;30.13;20.00;;;-2.20;91.80;;;;;;5115911;28;20448;-41
2021/03/08 05:24:18;;;;;;;22.07;18.27;;;-2.20;91.80;;;;;;5118046;28;20452;-39
2021/03/08 05:26:44;;;;;;;23.70;18.43;;;-2.20;91.80;;;;;;5102397;28;20409;-40
2021/03/08 05:29:10;;;;;;;25.70;17.37;;;-2.20;91.80;;;;;;5102897;28;20421;-40
2021/03/08 05:31:38;;;;;;;25.47;18.10;;;-2.30;91.80;;;;;;5102921;28;20199;-40
2021/03/08 05:34:05;;;;;;;26.17;19.23;;;-2.30;91.80;;;;;;5102494;28;20514;-41
2021/03/08 05:36:38;;;;;;;23.50;18.30;;;-2.30;91.90;;;;;;5120103;28;20409;-41
2021/03/08 05:39:04;;;;;;;28.70;19.00;;;-2.40;91.90;;;;;;5102802;28;20421;-40
2021/03/08 05:41:55;;;;;;;27.57;20.00;;;-2.40;91.90;;;;;;5102211;28;20851;-40
2021/03/08 05:44:22;;;;;;;25.87;18.90;;;-2.40;91.90;;;;;;5102242;28;20509;-41
2021/03/08 05:46:54;;;;;;;29.23;18.63;;;-2.30;92.00;;;;;;5101725;28;20467;-41
2021/03/08 05:49:25;;;;;;;24.90;18.57;;;-2.30;92.00;;;;;;5120358;28;20524;-40
2021/03/08 05:52:16;;;;;;;24.83;19.03;;;-2.30;91.90;;;;;;5101994;28;20808;-38
2021/03/08 05:55:03;;;;;;;26.40;18.73;;;-2.30;91.80;;;;;;5119499;28;20710;-40
2021/03/08 05:57:50;;;;;;;24.80;18.17;;;-2.40;91.60;;;;;;5119220;28;20728;-40
2021/03/08 06:00:20;;;;;;;24.87;18.90;;;-2.40;91.70;;;;;;5120030;28;20469;-39
2021/03/08 06:02:55;;;;;;;29.03;19.37;;;-2.40;91.80;;;;;;5101951;28;20846;-39
2021/03/08 06:05:30;;;;;;;26.80;18.60;;;-2.40;91.90;;;;;;5119375;28;20421;-39
2021/03/08 06:08:26;;;;;;;23.43;17.97;;;-2.40;91.90;;;;;;5084570;28;20428;-41
2021/03/08 06:11:07;;;;;;;28.50;19.50;;;-2.30;92.00;;;;;;5138177;27;20417;-40
2021/03/08 06:13:43;;;;;;;27.03;18.97;;;-2.30;91.80;;;;;;5138709;27;20761;-41
2021/03/08 06:16:12;;;;;;;28.30;19.67;;;-2.20;91.90;;;;;;5138956;27;20412;-43
2021/03/08 06:18:44;;;;;;;23.60;18.40;;;-2.30;91.70;;;;;;5120443;27;20794;-41
2021/03/08 06:21:12;;;;;;;26.57;18.60;;;-2.20;91.70;;;;;;5139577;27;20472;-41
2021/03/08 06:23:41;;;;;;;23.27;18.30;;;-2.10;91.60;;;;;;5139508;27;20453;-38
2021/03/08 06:26:09;;;;;;;25.93;19.07;;;-2.00;91.50;;;;;;5140068;27;20834;-41
2021/03/08 06:28:34;;;;;;;25.17;18.63;;;-2.00;91.40;;;;;;5134766;27;20421;-41
2021/03/08 06:31:00;;;;;;;25.97;20.13;;;-1.80;91.40;;;;;;5137799;27;20420;-39
2021/03/08 06:33:26;;;;;;;27.10;19.60;;;-1.70;91.40;;;;;;5140104;27;20569;-38
2021/03/08 06:35:52;;;;;;;28.87;20.13;;;-1.70;91.40;;;;;;5121687;27;20206;-40
2021/03/08 06:38:18;;;;;;;23.80;18.50;;;-1.50;91.30;;;;;;5139401;27;20186;-39
2021/03/08 06:40:45;;;;;;;22.33;18.27;;;-1.30;91.60;;;;;;5121538;27;20723;-41
2021/03/08 06:43:11;;;;;;;29.13;20.67;;;-1.10;91.30;;;;;;5138590;27;20420;-41
2021/03/08 06:45:36;;;;;;;28.63;18.63;;;-0.90;90.80;;;;;;5117664;27;20814;-37
2021/03/08 06:48:02;;;;;;;25.27;19.40;;;-0.80;90.60;;;;;;5111586;27;20545;-42
2021/03/08 06:50:28;;;;;;;28.30;19.77;;;-0.80;90.60;;;;;;5136008;27;20198;-40
2021/03/08 06:52:53;;;;;;;24.60;19.53;;;-0.70;90.80;;;;;;5138879;27;20190;-41
2021/03/08 06:55:22;;;;;;;26.70;21.03;;;-0.50;90.90;;;;;;5138827;27;20279;-42
2021/03/08 06:57:48;;;;;;;28.53;20.80;;;-0.30;90.50;;;;;;5137723;27;20399;-42
2021/03/08 07:00:15;;;;;;;26.00;20.70;;;0.00;90.00;;;;;;5136936;27;20486;-41
2021/03/08 07:02:48;;;;;;;26.60;20.10;;;0.30;89.30;;;;;;5099337;27;20432;-41
2021/03/08 07:05:34;;;;;;;30.23;20.70;;;0.60;88.40;;;;;;5134255;27;20519;-39
2021/03/08 07:08:00;;;;;;;25.97;20.17;;;1.10;86.30;;;;;;5134683;27;20432;-38
2021/03/08 07:10:40;;;;;;;27.07;19.80;;;1.40;84.00;;;;;;5136822;27;20453;-41
2021/03/08 07:13:10;;;;;;;26.87;20.07;;;1.80;83.20;;;;;;5137133;27;20468;-39
2021/03/08 07:15:54;;;;;;;26.77;19.50;;;2.20;82.80;;;;;;5136106;27;20417;-40
2021/03/08 07:18:22;;;;;;;22.90;20.10;;;2.60;81.30;;;;;;5135094;27;20558;-40
2021/03/08 07:20:52;;;;;;;23.40;19.40;;;2.80;79.50;;;;;;5134764;27;20788;-40
2021/03/08 07:23:24;;;;;;;24.43;20.00;;;2.60;78.00;;;;;;5117011;27;20450;-39
2021/03/08 07:26:04;;;;;;;26.93;20.83;;;2.80;78.90;;;;;;5138960;27;20412;-38
2021/03/08 07:28:30;;;;;;;29.57;22.00;;;3.00;78.70;;;;;;5138740;27;20456;-39
2021/03/08 07:30:55;;;;;;;26.63;21.97;;;3.20;78.60;;;;;;5138952;27;20423;-41
2021/03/08 07:33:23;;;;;;;24.97;20.67;;;3.40;78.00;;;;;;5139016;27;20252;-38
2021/03/08 07:35:53;;;;;;;31.30;22.20;;;3.50;77.30;;;;;;5138430;27;20236;-40
2021/03/08 07:38:28;;;;;;;30.63;22.40;;;3.70;76.70;;;;;;5138323;27;20428;-37
2021/03/08 07:41:14;;;;;;;26.47;19.73;;;4.00;75.70;;;;;;5137558;27;20467;-40
2021/03/08 07:43:44;;;;;;;24.93;21.43;;;4.40;74.90;;;;;;5135640;27;20448;-40
2021/03/08 07:46:29;;;;;;;25.13;22.47;;;4.80;73.50;;;;;;5135869;27;20423;-38
2021/03/08 07:48:56;;;;;;;23.07;20.50;;;5.30;70.60;;;;;;5135785;27;20495;-39
2021/03/08 07:51:22;;;;;;;25.73;21.17;;;5.60;69.10;;;;;;5137357;27;20472;-39
2021/03/08 07:53:49;;;;;;;23.67;20.80;;;5.80;67.20;;;;;;5136347;27;20424;-38
2021/03/08 07:56:14;;;;;;;27.63;20.90;;;6.20;66.50;;;;;;5116992;27;20627;-39
2021/03/08 07:58:40;;;;;;;22.23;19.83;;;7.10;65.80;;;;;;5119851;27;20523;-43
2021/03/08 08:01:08;;;;;;;21.30;18.53;;;7.90;61.20;;;;;;5120369;27;20256;-39
2021/03/08 08:03:35;;;;;;;21.90;18.70;;;8.70;58.70;;;;;;5119017;27;20453;-39
2021/03/08 08:06:04;;;;;;;23.13;19.33;;;9.80;56.70;;;;;;5137269;27;20549;-40
2021/03/08 08:08:31;;;;;;;22.57;20.23;;;10.80;53.00;;;;;;5137225;27;20910;-40
2021/03/08 08:10:58;;;;;;;12.93;11.57;;;11.40;51.10;;;;;;5119491;27;20424;-42
2021/03/08 08:13:34;;;;;;;11.50;10.40;;;12.60;69.00;;;;;;5136789;27;20488;-42
2021/03/08 08:16:08;;;;;;;16.13;14.63;;;14.20;69.60;;;;;;5136178;27;20404;-42
2021/03/08 08:18:42;;;;;;;21.23;19.20;;;15.70;58.30;;;;;;5136134;27;20444;-40
2021/03/08 08:21:15;;;;;;;21.87;19.77;;;17.10;43.10;;;;;;5135050;27;20938;-40
2021/03/08 08:23:45;;;;;;;22.10;20.00;;;15.70;36.60;;;;;;5135820;27;20424;-38
2021/03/08 08:26:17;;;;;;;21.77;19.70;;;16.50;37.50;;;;;;5137060;27;20775;-41
2021/03/08 08:28:44;;;;;;;20.63;18.83;;;17.00;36.10;;;;;;5136562;28;20440;-42
2021/03/08 08:31:10;;;;;;;21.23;19.33;;;17.20;35.00;;;;;;5135153;28;20822;-41
2021/03/08 08:33:36;;;;;;;20.03;17.57;;;17.50;34.30;;;;;;5133966;28;20424;-42
2021/03/08 08:36:12;;;;;;;21.23;18.00;;;17.70;34.00;;;;;;5134785;28;20507;-39
2021/03/08 08:38:39;;;;;;;18.83;17.13;;;18.40;33.40;;;;;;5114775;28;20186;-38
2021/03/08 08:41:28;;;;;;;21.20;19.20;;;18.90;32.50;;;;;;5134295;28;20551;-42
2021/03/08 08:44:14;;;;;;;18.00;16.40;;;19.20;32.10;;;;;;5118805;28;20440;-40
2021/03/08 08:46:47;;;;;;;21.00;19.20;;;19.80;31.30;;;;;;5105519;28;20950;-41
2021/03/08 08:49:14;;;;;;;20.37;18.47;;;18.30;31.20;;;;;;5136604;28;20433;-42
2021/03/08 08:51:59;;;;;;;20.80;18.90;;;18.80;31.40;;;;;;5137451;28;20436;-42
2021/03/08 08:54:27;;;;;;;20.67;18.80;;;19.10;31.20;;;;;;5135712;28;20723;-40
2021/03/08 08:57:00;;;;;;;19.27;17.37;;;19.60;30.80;;;;;;5137618;28;20419;-41
2021/03/08 08:59:30;;;;;;;19.50;17.80;;;19.90;30.40;;;;;;5139577;27;20892;-42
2021/03/08 09:02:29;;;;;;;18.07;16.57;;;20.00;30.10;;;;;;5121046;27;20476;-40
2021/03/08 09:04:55;;;;;;;17.67;16.17;;;20.50;29.90;;;;;;5135660;27;20416;-42
2021/03/08 09:07:24;;;;;;;15.87;14.50;;;21.00;29.60;;;;;;5136493;27;20428;-41
2021/03/08 09:09:49;;;;;;;17.27;15.73;;;20.90;29.60;;;;;;5136152;27;20202;-42
2021/03/08 09:12:38;;;;;;;16.93;15.57;;;21.30;28.90;;;;;;5135902;27;20483;-41
2021/03/08 09:15:11;;;;;;;19.50;17.80;;;21.40;28.70;;;;;;5136498;27;20592;-42
2021/03/08 09:17:46;;;;;;;17.97;16.47;;;21.40;28.60;;;;;;5119485;27;20760;-40
2021/03/08 09:20:12;;;;;;;16.57;14.97;;;21.30;28.50;;;;;;5119680;27;20761;-34
2021/03/08 09:22:47;;;;;;;16.83;15.30;;;21.50;28.70;;;;;;5139473;27;20511;-42
2021/03/08 09:25:32;;;;;;;18.27;16.50;;;21.50;28.60;;;;;;5139877;27;20178;-41
2021/03/08 09:28:09;;;;;;;19.10;17.50;;;21.70;28.30;;;;;;5139982;27;20400;-40
2021/03/08 09:30:46;;;;;;;17.33;15.83;;;21.50;27.90;;;;;;5139195;27;20714;-45
2021/03/08 09:33:19;;;;;;;16.00;14.63;;;21.20;27.40;;;;;;5140064;27;20659;-48
2021/03/08 09:35:50;;;;;;;16.23;14.87;;;20.30;27.70;;;;;;5121862;27;20441;-42
2021/03/08 09:38:21;;;;;;;14.50;13.30;;;20.10;28.20;;;;;;5117010;27;20648;-41
2021/03/08 09:40:49;;;;;;;14.63;13.30;;;19.60;27.70;;;;;;5138494;27;20486;-40
2021/03/08 09:43:32;;;;;;;14.93;13.67;;;19.30;28.10;;;;;;5121639;27;20481;-39
2021/03/08 09:46:00;;;;;;;14.63;13.33;;;19.20;28.30;;;;;;5141447;27;20694;-46
2021/03/08 09:48:31;;;;;;;14.13;12.93;;;19.10;27.80;;;;;;5140216;27;20698;-44
2021/03/08 09:51:04;;;;;;;14.47;13.17;;;19.00;28.20;;;;;;5140535;27;20432;-45
2021/03/08 09:53:38;;;;;;;16.80;15.30;;;19.10;28.30;;;;;;5140057;27;20841;-40
2021/03/08 09:56:05;;;;;;;15.80;14.40;;;18.80;27.70;;;;;;5140145;27;20432;-42
2021/03/08 09:58:31;;;;;;;14.77;13.57;;;18.60;28.20;;;;;;5137348;27;20440;-42
2021/03/08 10:00:59;;;;;;;16.63;15.13;;;18.00;28.20;;;;;;5120658;27;20468;-43
2021/03/08 10:03:25;;;;;;;15.50;14.23;;;17.80;28.40;;;;;;5121049;27;20175;-42
2021/03/08 10:05:53;;;;;;;16.20;14.80;;;17.90;28.90;;;;;;5139369;27;20425;-38
2021/03/08 10:08:20;;;;;;;15.47;14.07;;;18.30;28.30;;;;;;5139622;27;20499;-39
2021/03/08 10:10:47;;;;;;;15.40;14.10;;;18.70;28.40;;;;;;5138891;27;20884;-41
2021/03/08 10:13:14;;;;;;;13.87;12.67;;;19.30;27.90;;;;;;5138950;27;20479;-40
2021/03/08 10:15:50;;;;;;;15.07;13.77;;;19.70;27.70;;;;;;5138882;27;20694;-39
2021/03/08 10:18:25;;;;;;;16.67;15.30;;;20.20;27.50;;;;;;5138707;27;20686;-38
2021/03/08 10:20:56;;;;;;;16.83;15.43;;;19.80;27.10;;;;;;5138472;27;20463;-35
2021/03/08 10:23:30;;;;;;;15.30;14.10;;;19.60;27.10;;;;;;5140015;27;20846;-38
2021/03/08 10:26:09;;;;;;;17.30;15.80;;;19.30;27.40;;;;;;5139921;27;20416;-36
2021/03/08 10:28:37;;;;;;;14.77;13.40;;;20.10;27.60;;;;;;5139589;27;20515;-37
2021/03/08 10:31:05;;;;;;;14.70;13.57;;;21.30;27.20;;;;;;5138194;27;20776;-36
2021/03/08 10:33:32;;;;;;;16.70;15.10;;;22.40;26.30;;;;;;5138955;27;20420;-38
2021/03/08 10:35:57;;;;;;;15.33;13.93;;;22.60;25.90;;;;;;5120282;27;20726;-36
2021/03/08 10:38:33;;;;;;;15.33;14.07;;;23.30;26.00;;;;;;5121110;27;20496;-38
2021/03/08 10:41:03;;;;;;;14.73;13.53;;;23.70;25.90;;;;;;5137516;27;20207;-36
2021/03/08 10:43:30;;;;;;;17.63;15.93;;;24.40;25.20;;;;;;5137485;27;20740;-37
2021/03/08 10:45:58;;;;;;;11.80;10.80;;;24.30;25.10;;;;;;5119830;27;20745;-35
2021/03/08 10:48:25;;;;;;;12.97;11.80;;;24.30;26.90;;;;;;5137533;27;20806;-38
2021/03/08 10:50:52;;;;;;;13.90;12.60;;;25.30;26.40;;;;;;5138298;27;20454;-37
2021/03/08 10:53:19;;;;;;;14.50;12.57;;;26.20;25.70;;;;;;5137563;27;20412;-39
2021/03/08 10:55:46;;;;;;;13.60;12.50;;;26.60;24.80;;;;;;5139116;27;20698;-37
2021/03/08 10:58:12;;;;;;;14.00;12.80;;;27.20;23.80;;;;;;5138478;27;20669;-40
2021/03/08 11:00:40;;;;;;;13.90;12.80;;;27.50;23.90;;;;;;5139799;27;20459;-43
2021/03/08 11:03:05;;;;;;;13.60;12.60;;;27.40;23.50;;;;;;5139914;27;20529;-41
2021/03/08 11:05:32;;;;;;;15.57;14.27;;;27.80;23.50;;;;;;5119127;27;20534;-43
2021/03/08 11:08:00;;;;;;;14.40;13.30;;;27.90;23.10;;;;;;5137536;27;20163;-42
2021/03/08 11:10:38;;;;;;;18.90;15.57;;;27.80;23.10;;;;;;5136386;27;20767;-44
2021/03/08 11:13:07;;;;;;;15.53;13.93;;;27.90;23.10;;;;;;5116370;28;20939;-44
2021/03/08 11:15:34;;;;;;;14.43;13.23;;;27.40;22.60;;;;;;5137036;27;20842;-43
2021/03/08 11:17:59;;;;;;;13.87;12.77;;;27.20;22.90;;;;;;5139000;27;20393;-40
2021/03/08 11:20:29;;;;;;;11.63;10.73;;;27.10;23.40;;;;;;5119546;27;20595;-42
2021/03/08 11:22:59;;;;;;;13.80;12.70;;;27.30;23.10;;;;;;5136079;27;20167;-42
2021/03/08 11:25:36;;;;;;;14.07;12.97;;;27.50;22.30;;;;;;5137821;27;20844;-42
2021/03/08 11:28:07;;;;;;;14.10;13.00;;;27.20;22.10;;;;;;5137445;27;20392;-42
2021/03/08 11:30:34;;;;;;;15.10;13.90;;;26.40;22.70;;;;;;5137852;27;20703;-44
2021/03/08 11:33:00;;;;;;;13.53;12.27;;;26.30;22.90;;;;;;5136181;27;20417;-43
2021/03/08 11:35:28;;;;;;;14.13;12.93;;;26.20;23.00;;;;;;5135033;27;20436;-43
2021/03/08 11:37:58;;;;;;;13.33;12.33;;;26.30;23.10;;;;;;5136321;27;20202;-42
2021/03/08 11:40:25;;;;;;;13.27;12.27;;;26.50;22.70;;;;;;5134411;27;21019;-43
2021/03/08 11:42:51;;;;;;;13.83;12.63;;;26.90;22.60;;;;;;5135154;27;20489;-42
2021/03/08 11:45:17;;;;;;;13.70;12.70;;;27.00;21.90;;;;;;5116824;27;20444;-42
2021/03/08 11:47:44;;;;;;;13.10;12.20;;;26.30;21.90;;;;;;5138031;27;20182;-43
2021/03/08 11:50:10;;;;;;;12.27;11.27;;;25.70;22.30;;;;;;5119652;27;20425;-45
2021/03/08 11:52:36;;;;;;;12.57;11.67;;;25.90;22.90;;;;;;5121992;27;20429;-36
2021/03/08 11:55:03;;;;;;;13.70;12.60;;;26.70;22.60;;;;;;5140899;27;20517;-36
2021/03/08 11:57:29;;;;;;;12.40;11.50;;;26.80;22.30;;;;;;5138946;27;20171;-36
2021/03/08 11:59:54;;;;;;;13.53;12.50;;;26.40;22.40;;;;;;5121261;27;20537;-36
2021/03/08 12:02:20;;;;;;;12.50;11.50;;;26.90;22.90;;;;;;5137275;27;20249;-36
2021/03/08 12:04:46;;;;;;;12.40;11.50;;;26.50;22.90;;;;;;5137931;27;20167;-43
2021/03/08 12:07:12;;;;;;;12.50;11.33;;;27.50;22.60;;;;;;5136277;27;20557;-44
2021/03/08 12:09:37;;;;;;;13.30;12.40;;;28.20;22.30;;;;;;5136256;27;20297;-44
2021/03/08 12:12:03;;;;;;;14.67;13.27;;;28.20;21.50;;;;;;5136575;27;20189;-42
2021/03/08 12:14:29;;;;;;;12.50;11.60;;;26.80;21.40;;;;;;5134424;27;20229;-42
2021/03/08 12:16:54;;;;;;;12.90;11.80;;;26.30;22.20;;;;;;5135653;27;20444;-43
2021/03/08 12:19:20;;;;;;;14.03;12.83;;;26.40;22.20;;;;;;5134321;27;20175;-41
2021/03/08 12:21:46;;;;;;;14.00;12.23;;;26.40;22.60;;;;;;5135042;27;20465;-42
2021/03/08 12:24:12;;;;;;;29.83;16.30;;;26.60;22.40;;;;;;5136138;27;20201;-40
2021/03/08 12:26:38;;;;;;;12.60;11.50;;;26.70;22.30;;;;;;5137711;27;20179;-41
2021/03/08 12:29:04;;;;;;;14.80;13.50;;;26.90;21.90;;;;;;5136646;27;20405;-42
2021/03/08 12:31:29;;;;;;;13.50;12.33;;;25.50;21.70;;;;;;5135741;28;20332;-42
2021/03/08 12:33:55;;;;;;;13.70;12.60;;;25.20;22.10;;;;;;5116001;28;20349;-42
2021/03/08 12:36:20;;;;;;;13.93;12.83;;;25.60;22.40;;;;;;5135067;28;20186;-41
2021/03/08 12:38:46;;;;;;;16.43;14.27;;;26.20;22.30;;;;;;5134711;28;20248;-43
2021/03/08 12:41:12;;;;;;;14.50;13.30;;;26.60;22.10;;;;;;5134997;28;20244;-42
2021/03/08 12:43:37;;;;;;;12.57;11.57;;;27.00;22.30;;;;;;5133710;28;20189;-41